createdAt,value
2022-11-17T04:50:57.222Z,10.40
2022-11-17T04:53:26.394Z,9.73
2022-11-17T04:56:00.505Z,9.70
2022-11-17T04:58:30.381Z,9.60
2022-11-17T05:01:12.446Z,9.90
2022-11-17T05:03:45.762Z,9.67
2022-11-17T05:06:18.256Z,10.03
2022-11-17T05:08:47.664Z,9.50
2022-11-17T05:11:35.548Z,10.17
2022-11-17T05:14:04.989Z,10.37
2022-11-17T05:16:51.310Z,10.10
2022-11-17T05:19:22.476Z,10.63
2022-11-17T05:21:52.739Z,10.40
2022-11-17T05:24:21.378Z,10.67
2022-11-17T05:26:51.084Z,10.13
2022-11-17T05:29:21.804Z,10.70
2022-11-17T05:31:50.886Z,10.80
2022-11-17T05:34:20.289Z,10.53
2022-11-17T05:36:48.966Z,10.53
2022-11-17T05:39:19.354Z,10.80
2022-11-17T05:41:48.142Z,10.37
2022-11-17T05:44:18.443Z,9.90
2022-11-17T05:46:46.954Z,10.97
2022-11-17T05:49:15.468Z,10.80
2022-11-17T05:51:47.422Z,10.07
2022-11-17T05:54:20.052Z,10.43
2022-11-17T05:56:54.136Z,10.23
2022-11-17T05:59:28.263Z,10.53
2022-11-17T06:02:05.018Z,10.20
2022-11-17T06:04:35.825Z,11.40
2022-11-17T06:07:04.508Z,9.87
2022-11-17T06:09:37.061Z,10.47
2022-11-17T06:12:06.663Z,9.80
2022-11-17T06:14:38.034Z,10.53
2022-11-17T06:17:10.961Z,10.63
2022-11-17T06:19:44.037Z,10.50
2022-11-17T06:22:13.677Z,9.93
2022-11-17T06:24:46.036Z,9.90
2022-11-17T06:27:18.107Z,9.93
2022-11-17T06:29:47.633Z,9.43
2022-11-17T06:32:19.542Z,9.87
2022-11-17T06:34:55.840Z,10.40
2022-11-17T06:37:25.893Z,9.33
2022-11-17T06:39:56.042Z,9.73
2022-11-17T06:42:45.234Z,9.30
2022-11-17T06:45:15.805Z,10.33
2022-11-17T06:47:44.472Z,11.00
2022-11-17T06:50:13.377Z,9.27
2022-11-17T06:52:42.065Z,9.50
2022-11-17T06:55:12.979Z,9.63
2022-11-17T06:57:41.597Z,9.27
2022-11-17T07:00:11.963Z,9.00
2022-11-17T07:02:40.889Z,8.73
2022-11-17T07:05:10.376Z,8.93
2022-11-17T07:07:39.248Z,8.90
2022-11-17T07:10:08.832Z,9.53
2022-11-17T07:12:39.089Z,9.00
2022-11-17T07:15:09.129Z,9.53
2022-11-17T07:17:38.115Z,9.47
2022-11-17T07:20:08.126Z,9.27
2022-11-17T07:22:37.940Z,9.27
2022-11-17T07:25:11.861Z,9.43
2022-11-17T07:27:42.329Z,8.90
2022-11-17T07:30:13.405Z,8.47
2022-11-17T07:32:42.366Z,8.67
2022-11-17T07:35:11.279Z,9.30
2022-11-17T07:37:40.020Z,9.10
2022-11-17T07:40:11.102Z,9.30
2022-11-17T07:42:39.723Z,9.13
2022-11-17T07:45:12.614Z,8.30
2022-11-17T07:47:41.203Z,9.03
2022-11-17T07:50:10.671Z,9.27
2022-11-17T07:52:41.554Z,8.53
2022-11-17T07:55:10.718Z,8.80
2022-11-17T07:57:42.695Z,8.93
2022-11-17T08:00:15.339Z,9.03
2022-11-17T08:02:44.226Z,7.80
2022-11-17T08:05:19.115Z,8.50
2022-11-17T08:07:56.469Z,8.90
2022-11-17T08:10:31.668Z,8.63
2022-11-17T08:13:02.275Z,8.10
2022-11-17T08:15:33.261Z,8.13
2022-11-17T08:18:03.353Z,8.37
2022-11-17T08:20:36.097Z,8.47
2022-11-17T08:23:04.948Z,8.13
2022-11-17T08:25:33.729Z,7.87
2022-11-17T08:28:02.761Z,12.67
2022-11-17T08:30:35.863Z,8.93
2022-11-17T08:33:04.606Z,9.20
2022-11-17T08:35:37.405Z,8.90
2022-11-17T08:38:07.066Z,8.27
2022-11-17T08:40:39.184Z,8.27
2022-11-17T08:43:09.166Z,8.43
2022-11-17T08:45:39.472Z,8.63
2022-11-17T08:48:08.983Z,8.60
2022-11-17T08:50:37.692Z,8.20
2022-11-17T08:53:06.562Z,7.80
2022-11-17T08:55:41.198Z,7.80
2022-11-17T08:58:12.165Z,8.63
2022-11-17T09:00:42.957Z,8.17
2022-11-17T09:03:12.534Z,8.57
2022-11-17T09:05:43.105Z,9.00
2022-11-17T09:08:44.323Z,8.97
2022-11-17T09:11:07.439Z,8.93
2022-11-17T09:13:36.708Z,9.47
2022-11-17T09:16:09.445Z,9.27
2022-11-17T09:18:39.719Z,9.17
2022-11-17T09:21:10.710Z,9.53
2022-11-17T09:23:39.757Z,9.50
2022-11-17T09:26:10.991Z,9.47
2022-11-17T09:28:39.906Z,10.07
2022-11-17T09:31:11.807Z,9.53
2022-11-17T09:33:40.738Z,9.93
2022-11-17T09:36:10.291Z,9.87
2022-11-17T09:38:41.521Z,10.27
2022-11-17T09:41:25.085Z,10.23
2022-11-17T09:44:04.522Z,10.50
2022-11-17T09:46:47.796Z,11.13
2022-11-17T09:49:30.156Z,11.07
2022-11-17T09:52:02.783Z,10.10
2022-11-17T09:54:40.746Z,10.80
2022-11-17T09:57:20.385Z,11.13
2022-11-17T09:59:58.070Z,11.40
2022-11-17T10:02:28.584Z,11.73
2022-11-17T10:04:57.581Z,10.57
2022-11-17T10:07:26.955Z,11.87
2022-11-17T10:09:57.111Z,11.03
2022-11-17T10:12:33.745Z,11.50
2022-11-17T10:15:21.940Z,11.50
2022-11-17T10:17:52.314Z,11.90
2022-11-17T10:20:21.481Z,11.47
2022-11-17T10:22:51.614Z,11.33
2022-11-17T10:25:37.746Z,11.90
2022-11-17T10:28:08.571Z,11.90
2022-11-17T10:30:37.704Z,11.37
2022-11-17T10:33:07.763Z,11.60
2022-11-17T10:35:37.514Z,11.70
2022-11-17T10:38:14.764Z,12.00
2022-11-17T10:40:50.488Z,11.97
2022-11-17T10:43:24.873Z,10.37
2022-11-17T10:45:56.048Z,11.07
2022-11-17T10:48:32.732Z,11.33
2022-11-17T10:51:03.088Z,11.60
2022-11-17T10:53:41.374Z,11.33
2022-11-17T10:56:18.159Z,10.63
2022-11-17T10:59:03.493Z,11.07
2022-11-17T11:01:35.470Z,11.60
2022-11-17T11:04:07.922Z,10.90
2022-11-17T11:06:37.700Z,10.53
2022-11-17T11:09:12.019Z,10.77
2022-11-17T11:11:45.697Z,9.77
2022-11-17T11:14:21.369Z,10.73
2022-11-17T11:16:51.928Z,10.53
2022-11-17T11:19:22.704Z,11.23
2022-11-17T11:22:23.358Z,10.93
2022-11-17T11:24:59.668Z,9.53
2022-11-17T11:27:51.184Z,10.80
2022-11-17T11:30:21.117Z,10.90
2022-11-17T11:33:04.697Z,10.00
2022-11-17T11:35:53.299Z,9.70
2022-11-17T11:38:43.751Z,9.93
2022-11-17T11:41:35.798Z,9.97
2022-11-17T11:44:28.266Z,10.03
2022-11-17T11:47:03.012Z,9.97
2022-11-17T11:49:38.223Z,9.60
2022-11-17T11:52:16.399Z,9.20
2022-11-17T11:54:52.991Z,9.37
2022-11-17T11:57:30.658Z,9.77
2022-11-17T12:00:04.680Z,9.23
2022-11-17T12:02:43.627Z,10.03
2022-11-17T12:05:22.680Z,9.80
2022-11-17T12:07:59.115Z,9.77
2022-11-17T12:10:33.334Z,10.03
2022-11-17T12:13:04.050Z,10.03
2022-11-17T12:15:38.502Z,9.37
2022-11-17T12:18:13.760Z,8.90
2022-11-17T12:20:59.182Z,10.40
2022-11-17T12:24:00.032Z,9.23
2022-11-17T12:26:31.778Z,10.57
2022-11-17T12:29:33.327Z,8.90
2022-11-17T12:32:04.052Z,8.83
2022-11-17T12:34:36.182Z,9.37
2022-11-17T12:37:26.363Z,9.40
2022-11-17T12:40:00.649Z,9.67
2022-11-17T12:42:32.061Z,8.57
2022-11-17T12:45:05.746Z,9.50
2022-11-17T12:47:36.536Z,9.20
2022-11-17T12:51:00.565Z,9.43
2022-11-17T12:54:14.232Z,8.90
2022-11-17T12:57:06.318Z,8.97
2022-11-17T13:00:08.017Z,9.20
2022-11-17T13:02:59.815Z,8.97
2022-11-17T13:05:30.413Z,9.17
2022-11-17T13:08:27.384Z,8.90
2022-11-17T13:11:07.271Z,9.10
2022-11-17T13:13:37.149Z,8.83
2022-11-17T13:16:13.878Z,8.80
2022-11-17T13:18:44.702Z,8.87
2022-11-17T13:21:30.151Z,9.37
2022-11-17T13:24:00.921Z,9.10
2022-11-17T13:26:37.719Z,8.60
2022-11-17T13:29:13.478Z,9.43
2022-11-17T13:31:43.858Z,8.77
2022-11-17T13:34:18.735Z,8.73
2022-11-17T13:36:54.630Z,8.33
2022-11-17T13:39:27.253Z,8.47
2022-11-17T13:41:57.871Z,9.20
2022-11-17T13:44:29.702Z,8.97
2022-11-17T13:47:20.914Z,8.67
2022-11-17T13:49:49.781Z,8.00
2022-11-17T13:52:37.954Z,8.60
2022-11-17T13:55:17.506Z,8.67
2022-11-17T13:57:56.221Z,9.50
2022-11-17T14:00:25.310Z,8.87
2022-11-17T14:02:56.410Z,8.93
2022-11-17T14:05:27.609Z,9.07
2022-11-17T14:07:58.329Z,9.27
2022-11-17T14:10:33.537Z,8.87
2022-11-17T14:13:22.145Z,9.10
2022-11-17T14:15:59.406Z,9.43
2022-11-17T14:18:34.314Z,9.00
2022-11-17T14:21:21.228Z,9.10
2022-11-17T14:24:05.143Z,9.77
2022-11-17T14:26:44.161Z,9.33
2022-11-17T14:29:23.334Z,9.10
2022-11-17T14:32:04.167Z,9.30
2022-11-17T14:34:35.588Z,9.23
2022-11-17T14:37:07.292Z,9.30
2022-11-17T14:39:39.398Z,9.90
2022-11-17T14:42:08.347Z,9.27
2022-11-17T14:44:37.024Z,9.23
2022-11-17T14:47:05.629Z,8.97
2022-11-17T14:49:36.531Z,9.27
2022-11-17T14:52:05.619Z,9.27
2022-11-17T14:54:34.188Z,8.90
2022-11-17T14:57:03.008Z,9.83
2022-11-17T14:59:31.788Z,8.70
2022-11-17T15:02:01.422Z,9.03
2022-11-17T15:07:20.440Z,9.83
2022-11-17T15:09:49.110Z,10.07
2022-11-17T15:12:17.853Z,9.60
2022-11-17T15:14:48.700Z,9.50
2022-11-17T15:17:17.859Z,9.07
2022-11-17T15:19:46.641Z,10.13
2022-11-17T15:22:15.281Z,10.83
2022-11-17T15:24:46.735Z,9.93
2022-11-17T15:27:16.382Z,10.70
2022-11-17T15:29:45.212Z,9.70
2022-11-17T15:32:13.853Z,11.13
2022-11-17T15:34:42.572Z,11.70
2022-11-17T15:37:11.611Z,10.47
2022-11-17T15:39:40.310Z,12.07
2022-11-17T15:42:10.311Z,11.90
2022-11-17T15:44:38.981Z,11.77
2022-11-17T15:47:07.711Z,12.57
2022-11-17T15:49:37.092Z,12.30
2022-11-17T15:52:06.024Z,12.33
2022-11-17T15:54:34.653Z,13.50
2022-11-17T15:57:03.505Z,13.73
2022-11-17T15:59:34.974Z,13.53
2022-11-17T16:02:10.315Z,13.60
2022-11-17T16:04:40.464Z,14.00
2022-11-17T16:07:09.172Z,15.43
2022-11-17T16:09:37.797Z,15.77
2022-11-17T16:12:27.306Z,15.90
2022-11-17T16:14:57.309Z,15.50
2022-11-17T16:17:26.126Z,16.27
2022-11-17T16:19:56.754Z,17.03
2022-11-17T16:22:25.692Z,16.50
2022-11-17T16:24:54.876Z,16.97
2022-11-17T16:27:23.579Z,17.47
2022-11-17T16:29:52.646Z,17.13
2022-11-17T16:32:22.801Z,17.80
2022-11-17T16:34:52.133Z,18.20
2022-11-17T16:37:21.050Z,17.80
2022-11-17T16:39:49.743Z,18.50
2022-11-17T16:42:18.661Z,16.70
2022-11-17T16:44:47.368Z,17.30
2022-11-17T16:47:17.376Z,17.87
2022-11-17T16:49:51.600Z,18.53
2022-11-17T16:52:21.153Z,19.03
2022-11-17T16:54:49.743Z,18.93
2022-11-17T16:57:19.088Z,19.47
2022-11-17T16:59:48.606Z,18.07
2022-11-17T17:02:18.266Z,18.53
2022-11-17T17:04:48.409Z,18.20
2022-11-17T17:07:17.666Z,18.10
2022-11-17T17:09:46.635Z,17.40
2022-11-17T17:12:16.101Z,16.83
2022-11-17T17:14:44.821Z,17.50
2022-11-17T17:17:13.866Z,18.40
2022-11-17T17:19:42.592Z,17.13
2022-11-17T17:22:14.519Z,16.93
2022-11-17T17:24:44.844Z,17.37
2022-11-17T17:27:13.498Z,17.13
2022-11-17T17:29:42.203Z,17.50
2022-11-17T17:32:10.952Z,17.70
2022-11-17T17:34:39.701Z,17.40
2022-11-17T17:37:09.054Z,18.33
2022-11-17T17:39:39.469Z,17.93
2022-11-17T17:42:08.160Z,17.67
2022-11-17T17:44:36.851Z,17.87
2022-11-17T17:47:06.788Z,18.17
2022-11-17T17:49:39.058Z,17.73
2022-11-17T17:52:13.539Z,19.97
2022-11-17T17:54:44.562Z,18.97
2022-11-17T17:57:13.696Z,18.13
2022-11-17T17:59:42.609Z,18.07
2022-11-17T18:02:11.695Z,19.30
2022-11-17T18:04:40.862Z,19.00
2022-11-17T18:07:10.020Z,19.03
2022-11-17T18:09:38.883Z,18.20
2022-11-17T18:12:09.579Z,20.03
2022-11-17T18:14:38.004Z,18.97
2022-11-17T18:17:06.847Z,19.93
2022-11-17T18:19:35.840Z,20.17
2022-11-17T18:22:04.454Z,20.37
2022-11-17T18:24:33.148Z,20.27
2022-11-17T18:27:01.674Z,23.20
2022-11-17T18:29:32.159Z,20.77
2022-11-17T18:32:01.078Z,20.73
2022-11-17T18:34:29.667Z,20.73
2022-11-17T18:36:58.257Z,21.07
2022-11-17T18:39:28.555Z,19.73
2022-11-17T18:41:57.541Z,20.20
2022-11-17T18:44:26.165Z,22.43
2022-11-17T18:47:02.332Z,23.80
2022-11-17T18:49:32.015Z,21.87
2022-11-17T18:52:00.696Z,23.30
2022-11-17T18:54:30.244Z,22.13
2022-11-17T18:57:01.857Z,21.93
2022-11-17T18:59:30.400Z,21.60
2022-11-17T19:02:00.311Z,22.77
2022-11-17T19:04:29.715Z,21.13
2022-11-17T19:06:59.152Z,22.70
2022-11-17T19:09:27.724Z,22.80
2022-11-17T19:11:56.540Z,23.57
2022-11-17T19:14:25.143Z,22.20
2022-11-17T19:16:55.215Z,22.83
2022-11-17T19:19:25.225Z,22.07
2022-11-17T19:21:53.807Z,22.30
2022-11-17T19:24:23.248Z,23.73
2022-11-17T19:26:51.960Z,23.17
2022-11-17T19:29:21.344Z,23.60
2022-11-17T19:31:51.361Z,23.40
2022-11-17T19:34:19.780Z,22.57
2022-11-17T19:36:50.060Z,23.10
2022-11-17T19:39:19.097Z,22.30
2022-11-17T19:41:47.963Z,24.03
2022-11-17T19:44:16.557Z,21.97
2022-11-17T19:46:45.506Z,23.97
2022-11-17T19:49:14.426Z,22.30
2022-11-17T19:51:43.209Z,22.70
2022-11-17T19:54:14.985Z,24.00
2022-11-17T19:56:43.561Z,22.33
2022-11-17T19:59:15.944Z,23.30
2022-11-17T20:01:46.495Z,22.67
2022-11-17T20:04:15.139Z,23.70
2022-11-17T20:06:43.741Z,24.20
2022-11-17T20:09:16.278Z,22.33
2022-11-17T20:11:45.622Z,22.70
2022-11-17T20:14:14.634Z,23.20
2022-11-17T20:16:43.341Z,23.53
2022-11-17T20:19:13.943Z,23.07
2022-11-17T20:21:42.596Z,23.47
2022-11-17T20:24:11.352Z,24.57
2022-11-17T20:26:44.375Z,23.83
2022-11-17T20:29:13.063Z,24.87
2022-11-17T20:31:42.306Z,22.93
2022-11-17T20:34:14.219Z,24.53
2022-11-17T20:36:42.706Z,23.50
2022-11-17T20:39:14.308Z,25.50
2022-11-17T20:41:44.515Z,24.60
2022-11-17T20:44:25.038Z,25.07
2022-11-17T20:46:59.891Z,23.13
2022-11-17T20:49:31.266Z,23.43
2022-11-17T20:52:00.306Z,24.03
2022-11-17T20:54:28.794Z,26.90
2022-11-17T20:56:59.027Z,24.77
2022-11-17T20:59:27.907Z,25.77
2022-11-17T21:01:56.549Z,24.20
2022-11-17T21:04:25.252Z,25.03
2022-11-17T21:06:54.294Z,24.37
2022-11-17T21:09:25.248Z,26.10
2022-11-17T21:12:00.485Z,24.67
2022-11-17T21:14:32.369Z,25.63
2022-11-17T21:17:04.547Z,25.97
2022-11-17T21:19:38.777Z,26.20
2022-11-17T21:22:09.029Z,25.70
2022-11-17T21:24:37.599Z,24.30
2022-11-17T21:27:06.664Z,24.87
2022-11-17T21:29:36.796Z,24.53
2022-11-17T21:32:06.639Z,26.43
2022-11-17T21:34:35.327Z,25.87
2022-11-17T21:37:04.010Z,25.30
2022-11-17T21:39:35.438Z,26.37
2022-11-17T21:42:04.338Z,25.67
2022-11-17T21:44:33.337Z,24.83
2022-11-17T21:47:03.387Z,24.10
2022-11-17T21:49:32.265Z,25.93
2022-11-17T21:52:00.999Z,24.73
2022-11-17T21:54:29.689Z,24.83
2022-11-17T21:56:58.770Z,23.70
2022-11-17T21:59:27.531Z,26.57
2022-11-17T22:01:56.411Z,23.53
2022-11-17T22:04:27.426Z,24.53
2022-11-17T22:06:56.090Z,26.00
2022-11-17T22:09:26.909Z,24.07
2022-11-17T22:11:55.907Z,23.03
2022-11-17T22:14:25.361Z,24.40
2022-11-17T22:16:57.787Z,23.90
2022-11-17T22:19:29.641Z,23.70
2022-11-17T22:21:58.218Z,23.10
2022-11-17T22:24:32.826Z,24.33
2022-11-17T22:27:01.728Z,22.33
2022-11-17T22:29:30.362Z,23.33
2022-11-17T22:31:59.032Z,23.23
2022-11-17T22:34:28.962Z,23.83
2022-11-17T22:36:57.764Z,22.43
2022-11-17T22:39:26.444Z,23.00
2022-11-17T22:41:54.986Z,23.53
2022-11-17T22:44:23.588Z,23.43
2022-11-17T22:46:52.331Z,23.53
2022-11-17T22:49:21.143Z,21.97
2022-11-17T22:52:07.898Z,21.73
2022-11-17T22:54:36.606Z,21.03
2022-11-17T22:57:05.526Z,21.97
2022-11-17T22:59:34.805Z,21.77
2022-11-17T23:02:05.780Z,22.20
2022-11-17T23:04:34.429Z,22.50
2022-11-17T23:07:05.809Z,21.67
2022-11-17T23:09:34.508Z,20.73
2022-11-17T23:12:03.009Z,20.87
2022-11-17T23:14:31.523Z,22.07
2022-11-17T23:17:00.005Z,20.80
2022-11-17T23:19:30.122Z,19.50
2022-11-17T23:21:58.973Z,20.60
2022-11-17T23:24:31.966Z,20.40
2022-11-17T23:27:00.717Z,19.73
2022-11-17T23:29:29.943Z,19.03
2022-11-17T23:31:58.540Z,19.73
2022-11-17T23:34:28.089Z,19.70
2022-11-17T23:37:02.330Z,19.17
2022-11-17T23:39:34.007Z,20.57
2022-11-17T23:42:02.771Z,20.23
2022-11-17T23:44:31.650Z,18.73
2022-11-17T23:47:00.569Z,20.90
2022-11-17T23:49:30.472Z,19.83
